Time;durP1;ratioP1;P1;durP2;ratioP2;P2;SDS_P1;SDS_P2;PMS_P1;PMS_P2;Temp;Humidity;BMP_temperature;BMP_pressure;BME280_temperature;BME280_humidity;BME280_pressure;Samples;Min_cycle;Max_cycle;Signal;HPM_P1;HPM_P2
2021/12/26 00:00:25;;;;;;;21.03;15.20;;;;;;;-6.17;97.66;101107.09;5023929;28;20244;-56
2021/12/26 00:02:53;;;;;;;26.43;18.07;;;;;;;-6.19;97.22;101097.53;5027339;28;20284;-56
2021/12/26 00:05:21;;;;;;;28.30;19.40;;;;;;;-6.23;96.70;101095.56;5027054;28;20780;-54
2021/12/26 00:07:48;;;;;;;25.03;16.67;;;;;;;-6.34;96.34;101093.13;5028111;28;20345;-56
2021/12/26 00:10:16;;;;;;;23.57;18.73;;;;;;;-6.42;96.01;101094.25;5027382;28;20230;-55
2021/12/26 00:12:43;;;;;;;29.20;16.67;;;;;;;-6.53;96.30;101100.22;5028221;28;20755;-56
2021/12/26 00:15:10;;;;;;;24.50;17.93;;;;;;;-6.66;96.63;101098.44;5027502;28;20269;-55
2021/12/26 00:17:37;;;;;;;25.13;17.17;;;;;;;-6.76;97.28;101096.88;5028101;28;20320;-57
2021/12/26 00:20:07;;;;;;;20.43;15.93;;;;;;;-6.80;97.62;101101.66;5026974;28;20258;-55
2021/12/26 00:22:33;;;;;;;21.90;15.87;;;;;;;-6.77;97.81;101100.22;5028387;28;20245;-55
2021/12/26 00:25:00;;;;;;;25.80;16.27;;;;;;;-6.82;97.11;101100.63;5027063;28;20254;-57
2021/12/26 00:27:27;;;;;;;26.93;16.33;;;;;;;-6.85;97.80;101101.28;5031856;28;20298;-55
2021/12/26 00:29:53;;;;;;;21.87;16.27;;;;;;;-6.82;97.22;101101.50;5041042;28;20227;-55
2021/12/26 00:32:20;;;;;;;24.07;15.43;;;;;;;-6.81;97.48;101102.41;5042079;28;20245;-56
2021/12/26 00:34:50;;;;;;;23.27;15.90;;;;;;;-6.89;96.99;101104.38;5042086;28;20261;-54
2021/12/26 00:37:18;;;;;;;26.13;16.63;;;;;;;-6.94;96.83;101110.81;5040489;28;20238;-54
2021/12/26 00:39:45;;;;;;;20.63;15.50;;;;;;;-7.02;96.91;101106.78;5028079;28;20262;-54
2021/12/26 00:42:11;;;;;;;24.47;16.27;;;;;;;-7.07;96.99;101103.91;5027553;28;20256;-54
2021/12/26 00:44:39;;;;;;;20.20;14.00;;;;;;;-7.16;97.28;101104.88;5027886;28;20264;-55
2021/12/26 00:47:06;;;;;;;22.37;15.90;;;;;;;-7.21;97.04;101107.97;5026053;28;20238;-54
2021/12/26 00:49:32;;;;;;;25.67;15.33;;;;;;;-7.26;97.85;101111.84;5027822;28;20612;-56
2021/12/26 00:51:59;;;;;;;16.40;13.47;;;;;;;-7.26;98.10;101110.97;5027715;28;20706;-56
2021/12/26 00:54:26;;;;;;;21.03;14.00;;;;;;;-7.18;98.06;101107.31;5026049;28;20270;-55
2021/12/26 00:56:53;;;;;;;18.30;14.10;;;;;;;-7.18;97.62;101109.00;5026775;28;20302;-55
2021/12/26 00:59:19;;;;;;;19.13;12.93;;;;;;;-7.16;97.45;101112.53;5027635;28;20726;-57
2021/12/26 01:01:45;;;;;;;16.73;12.90;;;;;;;-7.16;97.83;101112.53;5027954;28;20254;-56
2021/12/26 01:04:13;;;;;;;20.93;13.10;;;;;;;-7.15;98.15;101114.31;5028051;28;20727;-56
2021/12/26 01:06:40;;;;;;;22.70;12.60;;;;;;;-7.15;98.66;101105.00;5027612;28;20317;-58
2021/12/26 01:09:08;;;;;;;19.20;13.83;;;;;;;-7.08;98.60;101111.47;5022791;28;20275;-56
2021/12/26 01:11:39;;;;;;;21.10;13.43;;;;;;;-7.11;98.17;101108.69;5028782;28;20548;-56
2021/12/26 01:14:09;;;;;;;20.63;12.77;;;;;;;-7.13;98.35;101098.34;5028562;28;20245;-55
2021/12/26 01:16:36;;;;;;;19.57;14.70;;;;;;;-7.07;97.84;101115.78;5027863;28;20760;-54
2021/12/26 01:19:08;;;;;;;19.13;12.70;;;;;;;-7.09;97.82;101113.13;5028447;28;20242;-57
2021/12/26 01:21:35;;;;;;;20.53;13.47;;;;;;;-7.13;98.04;101116.19;5030281;28;20295;-59
2021/12/26 01:24:04;;;;;;;22.37;13.63;;;;;;;-7.15;98.50;101109.22;5028112;28;20243;-56
2021/12/26 01:26:31;;;;;;;18.17;12.73;;;;;;;-7.13;98.70;101118.75;5028187;28;20294;-58
2021/12/26 01:29:00;;;;;;;22.00;13.10;;;;;;;-7.16;98.57;101117.63;5028972;28;20261;-56
2021/12/26 01:31:26;;;;;;;19.67;12.53;;;;;;;-7.17;99.05;101126.06;5028430;28;20245;-53
2021/12/26 01:33:56;;;;;;;24.07;12.87;;;;;;;-7.09;99.44;101118.22;5027186;28;20226;-55
2021/12/26 01:36:23;;;;;;;21.97;12.33;;;;;;;-7.10;99.17;101123.19;5027516;28;20246;-55
2021/12/26 01:38:49;;;;;;;17.60;12.93;;;;;;;-7.12;98.74;101123.09;5026409;28;20238;-58
2021/12/26 01:41:17;;;;;;;22.30;11.87;;;;;;;-7.11;98.35;101121.44;5026917;28;20243;-55
2021/12/26 01:43:46;;;;;;;15.07;11.13;;;;;;;-7.11;98.48;101126.53;5028226;28;20262;-55
2021/12/26 01:46:14;;;;;;;19.07;10.67;;;;;;;-7.19;99.33;101125.97;5027303;28;20309;-54
2021/12/26 01:48:41;;;;;;;13.77;9.13;;;;;;;-7.21;100.00;101120.72;5027165;28;20316;-54
2021/12/26 01:51:07;;;;;;;15.77;10.30;;;;;;;-7.13;100.00;101116.19;5027904;28;20284;-53
2021/12/26 01:53:37;;;;;;;16.33;8.63;;;;;;;-7.05;100.00;101121.91;5023021;28;20251;-56
2021/12/26 01:56:05;;;;;;;12.47;9.27;;;;;;;-6.98;100.00;101124.13;5027310;28;20241;-57
2021/12/26 01:58:32;;;;;;;11.57;8.87;;;;;;;-6.91;100.00;101126.38;5026715;28;20234;-54
2021/12/26 02:01:00;;;;;;;13.40;8.27;;;;;;;-6.86;100.00;101119.94;5022817;28;20374;-55
2021/12/26 02:03:28;;;;;;;14.87;9.77;;;;;;;-6.82;99.46;101126.16;5022397;28;20769;-56
2021/12/26 02:05:55;;;;;;;15.87;9.43;;;;;;;-6.84;98.49;101112.41;5026688;28;20657;-54
2021/12/26 02:08:21;;;;;;;11.00;8.43;;;;;;;-6.87;97.60;101113.06;5025199;28;20225;-56
2021/12/26 02:10:47;;;;;;;18.30;10.83;;;;;;;-7.01;97.99;101118.81;5025862;28;20256;-56
2021/12/26 02:13:14;;;;;;;16.93;11.70;;;;;;;-7.00;98.53;101125.66;5025588;28;20238;-56
2021/12/26 02:15:41;;;;;;;21.20;13.13;;;;;;;-7.00;98.39;101126.56;5025528;28;20435;-57
2021/12/26 02:18:08;;;;;;;18.80;11.00;;;;;;;-7.08;98.62;101131.88;5025047;28;20238;-56
2021/12/26 02:20:48;;;;;;;15.83;10.07;;;;;;;-7.17;99.13;101132.06;5027189;28;20231;-58
2021/12/26 02:23:20;;;;;;;21.57;11.50;;;;;;;-7.17;99.63;101131.16;5024850;28;20241;-54
2021/12/26 02:28:30;;;;;;;11.50;10.07;;;;;;;-7.13;99.99;101128.94;5025611;28;20244;-58
2021/12/26 02:34:18;;;;;;;13.07;10.43;;;;;;;-7.16;98.60;101117.63;5010958;28;20254;-56
2021/12/26 02:36:46;;;;;;;14.70;10.57;;;;;;;-7.21;98.52;101120.72;5021027;28;20325;-55
2021/12/26 02:39:12;;;;;;;15.03;11.27;;;;;;;-7.18;98.99;101119.19;5024987;28;20258;-56
2021/12/26 02:41:39;;;;;;;12.63;10.53;;;;;;;-7.17;98.50;101121.84;5025370;28;20300;-55
2021/12/26 02:44:05;;;;;;;13.70;10.20;;;;;;;-7.21;98.42;101113.06;5023060;28;20731;-56
2021/12/26 02:46:32;;;;;;;17.97;11.03;;;;;;;-7.25;98.65;101111.06;5025503;28;20301;-58
2021/12/26 02:48:58;;;;;;;14.63;10.40;;;;;;;-7.26;98.63;101101.66;5025869;28;20296;-56
2021/12/26 02:51:25;;;;;;;13.23;10.17;;;;;;;-7.25;98.82;101105.09;5024572;28;20302;-55
2021/12/26 02:53:52;;;;;;;14.67;10.00;;;;;;;-7.17;98.83;101105.66;5030106;28;20218;-56
2021/12/26 02:56:19;;;;;;;18.13;11.07;;;;;;;-7.14;97.86;101104.22;5024451;28;20238;-56
2021/12/26 02:58:46;;;;;;;17.10;11.57;;;;;;;-7.16;97.77;101102.31;5024415;28;20232;-56
2021/12/26 03:01:14;;;;;;;17.27;10.73;;;;;;;-7.17;97.88;101110.75;5024024;28;20257;-57
2021/12/26 03:03:41;;;;;;;15.93;11.03;;;;;;;-7.19;97.44;101097.91;5024531;28;20284;-58
2021/12/26 03:06:16;;;;;;;15.30;12.03;;;;;;;-7.26;97.64;101104.19;5024523;28;20262;-56
2021/12/26 03:08:43;;;;;;;19.00;12.97;;;;;;;-7.23;97.21;101111.16;5026005;28;20233;-55
2021/12/26 03:11:11;;;;;;;22.80;13.63;;;;;;;-7.26;96.93;101114.41;5024928;28;20730;-56
2021/12/26 03:13:37;;;;;;;21.83;13.53;;;;;;;-7.36;96.83;101119.56;5023889;28;20569;-56
2021/12/26 03:16:04;;;;;;;22.23;12.77;;;;;;;-7.41;96.71;101115.75;5024892;28;20783;-56
2021/12/26 03:18:30;;;;;;;22.97;14.60;;;;;;;-7.49;96.90;101114.31;5024267;28;20249;-57
2021/12/26 03:20:57;;;;;;;19.37;15.07;;;;;;;-7.54;96.43;101110.53;5028042;28;20331;-56
2021/12/26 03:23:26;;;;;;;17.10;12.47;;;;;;;-7.63;96.54;101105.59;5028967;28;20722;-57
2021/12/26 03:25:55;;;;;;;18.80;13.67;;;;;;;-7.68;96.84;101105.25;5029212;28;20296;-56
2021/12/26 03:28:23;;;;;;;19.57;13.07;;;;;;;-7.73;96.83;101105.63;5028154;28;20269;-56
2021/12/26 03:30:51;;;;;;;14.83;12.17;;;;;;;-7.74;97.41;101099.66;5029072;28;20258;-54
2021/12/26 03:33:18;;;;;;;20.83;14.43;;;;;;;-7.78;97.33;101097.66;5028757;28;20243;-55
2021/12/26 03:35:44;;;;;;;19.17;13.37;;;;;;;-7.81;97.78;101097.41;5029204;28;20235;-56
2021/12/26 03:38:12;;;;;;;26.13;15.50;;;;;;;-7.74;97.48;101097.13;5028702;28;20267;-56
2021/12/26 03:40:39;;;;;;;23.10;16.50;;;;;;;-7.73;97.48;101098.00;5029013;28;20284;-56
2021/12/26 03:43:05;;;;;;;21.47;14.47;;;;;;;-7.73;97.05;101096.34;5026828;28;20672;-56
2021/12/26 03:45:33;;;;;;;28.87;15.57;;;;;;;-7.74;97.37;101099.66;5028694;28;20241;-58
2021/12/26 03:48:00;;;;;;;25.30;16.47;;;;;;;-7.74;97.45;101104.75;5027414;28;20261;-54
2021/12/26 03:50:27;;;;;;;27.10;16.13;;;;;;;-7.78;96.79;101102.75;5028018;28;20234;-56
2021/12/26 03:52:56;;;;;;;27.53;18.30;;;;;;;-7.81;96.79;101106.72;5020645;28;20324;-56
2021/12/26 03:55:23;;;;;;;25.73;16.27;;;;;;;-7.88;97.06;101104.47;5027488;28;20259;-56
2021/12/26 03:57:50;;;;;;;27.40;16.20;;;;;;;-7.88;97.29;101104.47;5027323;28;20253;-55
2021/12/26 04:00:16;;;;;;;24.57;16.90;;;;;;;-7.90;96.94;101106.00;5027538;28;20238;-54
2021/12/26 04:02:45;;;;;;;25.60;16.00;;;;;;;-7.91;97.39;101105.09;5028022;28;20291;-56
2021/12/26 04:05:12;;;;;;;26.60;17.00;;;;;;;-7.87;97.49;101098.59;5026253;28;20258;-57
2021/12/26 04:07:39;;;;;;;31.77;18.73;;;;;;;-7.85;97.18;101104.69;5027973;28;20234;-57
2021/12/26 04:10:07;;;;;;;27.63;18.40;;;;;;;-7.88;97.61;101104.47;5027904;28;20236;-55
2021/12/26 04:12:36;;;;;;;29.57;17.33;;;;;;;-7.88;97.95;101100.25;5028476;28;20235;-56
2021/12/26 04:15:04;;;;;;;27.83;18.40;;;;;;;-7.82;97.48;101105.84;5028645;28;20753;-55
2021/12/26 04:17:30;;;;;;;30.83;19.50;;;;;;;-7.82;97.43;101104.94;5027915;28;20663;-54
2021/12/26 04:19:58;;;;;;;26.83;17.40;;;;;;;-7.80;98.15;101101.72;5026981;28;20241;-54
2021/12/26 04:22:24;;;;;;;29.60;17.70;;;;;;;-7.75;98.84;101097.88;5027828;28;20262;-57
2021/12/26 04:24:51;;;;;;;25.57;18.50;;;;;;;-7.72;99.29;101100.69;5027651;28;20312;-55
2021/12/26 04:27:17;;;;;;;28.57;18.67;;;;;;;-7.63;99.42;101102.16;5026568;28;20289;-55
2021/12/26 04:29:43;;;;;;;25.57;17.27;;;;;;;-7.55;99.34;101106.16;5027795;28;20235;-56
2021/12/26 04:32:10;;;;;;;23.67;14.87;;;;;;;-7.49;100.00;101107.53;5026692;28;20247;-58
2021/12/26 04:34:36;;;;;;;14.73;9.03;;;;;;;-7.26;100.00;101106.75;5026226;28;20304;-54
2021/12/26 04:37:05;;;;;;;14.00;8.20;;;;;;;-7.02;100.00;101111.91;5027213;28;20242;-58
2021/12/26 04:39:31;;;;;;;12.33;8.17;;;;;;;-6.76;100.00;101101.97;5027246;28;20261;-56
2021/12/26 04:41:57;;;;;;;14.20;7.80;;;;;;;-6.51;100.00;101108.88;5026898;28;20321;-58
2021/12/26 04:44:26;;;;;;;11.83;7.73;;;;;;;-6.39;100.00;101091.88;5026427;28;20975;-58
2021/12/26 04:46:52;;;;;;;12.77;8.17;;;;;;;-6.33;100.00;101087.22;5026840;28;20233;-55
2021/12/26 04:49:18;;;;;;;8.87;7.07;;;;;;;-6.23;100.00;101093.88;5021723;28;20246;-56
2021/12/26 04:51:45;;;;;;;9.17;7.77;;;;;;;-6.20;100.00;101091.56;5027091;28;20300;-59
2021/12/26 04:54:12;;;;;;;13.27;7.17;;;;;;;-6.14;100.00;101081.78;5026691;28;20258;-57
2021/12/26 04:56:39;;;;;;;12.47;7.63;;;;;;;-5.90;100.00;101084.22;5026973;28;20312;-56
2021/12/26 04:59:05;;;;;;;7.73;6.77;;;;;;;-5.96;99.15;101081.31;5029701;28;20312;-56
2021/12/26 05:01:32;;;;;;;7.70;6.47;;;;;;;-5.99;99.23;101074.28;5029944;28;20255;-55
2021/12/26 05:03:59;;;;;;;7.87;7.07;;;;;;;-5.83;99.28;101064.31;5029267;28;20273;-57
2021/12/26 05:06:27;;;;;;;8.60;5.83;;;;;;;-5.93;98.32;101081.50;5032333;28;20301;-56
2021/12/26 05:08:53;;;;;;;7.93;6.23;;;;;;;-5.48;97.81;101081.19;5040304;28;20281;-55
2021/12/26 05:11:21;;;;;;;9.37;6.03;;;;;;;-5.39;97.28;101089.50;5038888;28;20239;-57
2021/12/26 05:13:47;;;;;;;10.13;6.73;;;;;;;-5.17;97.05;101081.59;5033133;28;20233;-54
2021/12/26 05:16:13;;;;;;;9.43;6.20;;;;;;;-4.15;95.67;101078.84;5032766;28;20317;-57
2021/12/26 05:18:40;;;;;;;8.30;6.00;;;;;;;-4.44;94.18;101080.44;5035114;28;20272;-56
2021/12/26 05:21:06;;;;;;;10.70;6.53;;;;;;;-4.11;92.65;101073.13;5033168;28;20286;-55
2021/12/26 05:23:33;;;;;;;7.57;5.77;;;;;;;-3.65;91.79;101079.47;5031171;28;20261;-55
2021/12/26 05:25:59;;;;;;;9.60;6.70;;;;;;;-3.53;88.54;101083.56;5031732;28;20243;-56
2021/12/26 05:28:27;;;;;;;7.77;6.07;;;;;;;-3.02;87.45;101083.25;5031473;28;20254;-57
2021/12/26 05:30:53;;;;;;;9.37;7.07;;;;;;;-3.09;86.81;101081.06;5031542;28;20326;-56
2021/12/26 05:33:20;;;;;;;8.27;6.97;;;;;;;-3.41;85.13;101084.28;5028032;28;20231;-56
2021/12/26 05:35:46;;;;;;;9.30;6.67;;;;;;;-3.39;85.69;101081.03;5032224;28;20296;-56
2021/12/26 05:38:12;;;;;;;10.13;6.67;;;;;;;-3.64;83.82;101080.34;5033914;28;20242;-56
2021/12/26 05:40:39;;;;;;;11.70;7.10;;;;;;;-3.73;86.68;101080.66;5032426;28;20234;-58
2021/12/26 05:43:05;;;;;;;11.33;6.87;;;;;;;-3.05;87.19;101085.63;5028070;28;20645;-56
2021/12/26 05:45:33;;;;;;;10.03;6.27;;;;;;;-3.68;84.85;101083.50;5025218;28;20304;-57
2021/12/26 05:47:59;;;;;;;8.60;6.70;;;;;;;-3.85;86.43;101080.78;5025154;28;20274;-56
2021/12/26 05:50:25;;;;;;;10.43;7.43;;;;;;;-4.52;86.08;101088.44;5025543;28;20257;-58
2021/12/26 05:52:52;;;;;;;8.23;6.47;;;;;;;-4.50;86.88;101074.91;5026350;28;20310;-56
2021/12/26 05:55:19;;;;;;;10.40;7.17;;;;;;;-4.33;88.63;101084.56;5025119;28;20244;-54
2021/12/26 05:57:46;;;;;;;9.27;6.33;;;;;;;-4.19;88.46;101077.78;5024967;28;20240;-56
2021/12/26 06:00:15;;;;;;;8.37;6.30;;;;;;;-4.47;87.95;101076.81;5025060;28;20672;-54
2021/12/26 06:02:43;;;;;;;8.77;6.63;;;;;;;-3.89;91.89;101077.94;5025846;28;20267;-56
2021/12/26 06:05:09;;;;;;;20.00;7.20;;;;;;;-2.77;86.37;101077.84;5024155;28;20328;-56
2021/12/26 06:07:36;;;;;;;12.33;7.00;;;;;;;-3.41;85.41;101071.44;5025834;28;20657;-56
2021/12/26 06:10:03;;;;;;;8.93;6.37;;;;;;;-3.73;84.31;101070.38;5025721;28;20235;-56
2021/12/26 06:12:30;;;;;;;8.53;6.40;;;;;;;-4.41;88.25;101075.53;5026136;28;20703;-55
2021/12/26 06:14:56;;;;;;;7.43;6.37;;;;;;;-4.17;89.18;101075.31;5024849;28;20829;-54
2021/12/26 06:17:22;;;;;;;9.80;6.93;;;;;;;-4.06;83.54;101069.19;5025343;28;20417;-56
2021/12/26 06:19:50;;;;;;;8.47;6.17;;;;;;;-3.94;86.22;101080.19;5025055;28;20251;-56
2021/12/26 06:22:16;;;;;;;8.90;6.60;;;;;;;-4.44;86.93;101079.56;5031903;28;20265;-57
2021/12/26 06:24:43;;;;;;;10.00;7.33;;;;;;;-4.25;89.37;101081.63;5031205;28;20242;-53
2021/12/26 06:27:10;;;;;;;12.77;7.17;;;;;;;-4.60;85.97;101072.56;5030882;28;20784;-56
2021/12/26 06:29:36;;;;;;;11.33;6.60;;;;;;;-4.28;89.54;101072.09;5030917;28;20287;-57
2021/12/26 06:32:04;;;;;;;10.53;7.10;;;;;;;-4.73;90.19;101076.00;5030994;28;20246;-56
2021/12/26 06:34:31;;;;;;;12.23;7.00;;;;;;;-5.36;88.25;101079.50;5030200;28;20230;-57
2021/12/26 06:36:59;;;;;;;7.43;6.53;;;;;;;-5.11;93.08;101097.38;5033274;28;20246;-55
2021/12/26 06:39:25;;;;;;;8.00;6.03;;;;;;;-5.55;91.45;101091.78;5030404;28;20660;-57
2021/12/26 06:41:51;;;;;;;10.40;6.17;;;;;;;-5.21;95.00;101092.44;5026455;28;20308;-57
2021/12/26 06:44:18;;;;;;;8.53;7.03;;;;;;;-5.58;92.57;101091.56;5027714;28;20264;-54
2021/12/26 06:46:44;;;;;;;9.23;6.43;;;;;;;-5.49;93.78;101087.09;5028420;28;20707;-55
2021/12/26 06:49:10;;;;;;;9.73;6.83;;;;;;;-6.11;93.82;101083.63;5025430;28;20275;-58
2021/12/26 06:51:37;;;;;;;9.83;6.90;;;;;;;-6.12;96.33;101085.31;5025824;28;20235;-58
2021/12/26 06:54:04;;;;;;;11.20;7.07;;;;;;;-6.05;97.32;101086.63;5025869;28;20257;-55
2021/12/26 06:56:31;;;;;;;8.60;5.90;;;;;;;-5.46;100.00;101087.31;5024655;28;20849;-56
2021/12/26 06:58:57;;;;;;;11.97;7.90;;;;;;;-5.82;95.37;101085.69;5025084;28;20290;-56
2021/12/26 07:01:23;;;;;;;11.40;6.37;;;;;;;-6.07;95.15;101088.19;5024953;28;20325;-55
2021/12/26 07:03:50;;;;;;;9.10;7.47;;;;;;;-5.08;97.94;101091.59;5023883;28;20311;-55
2021/12/26 07:06:17;;;;;;;13.37;7.37;;;;;;;-4.88;93.91;101086.13;5024549;28;20233;-54
2021/12/26 07:08:43;;;;;;;9.80;6.60;;;;;;;-5.08;93.27;101089.03;5024648;28;20278;-56
2021/12/26 07:11:11;;;;;;;9.43;6.63;;;;;;;-5.54;92.07;101091.03;5024368;28;20683;-55
2021/12/26 07:13:37;;;;;;;10.77;7.17;;;;;;;-5.64;96.47;101086.06;5024035;28;20742;-58
2021/12/26 07:16:04;;;;;;;12.53;7.40;;;;;;;-4.82;97.33;101095.88;5024463;28;20856;-56
2021/12/26 07:18:30;;;;;;;9.20;7.03;;;;;;;-4.68;94.08;101094.22;5024107;28;20508;-55
2021/12/26 07:20:57;;;;;;;7.77;5.77;;;;;;;-4.66;95.08;101092.66;5027043;28;22549;-55
2021/12/26 07:23:23;;;;;;;13.70;7.50;;;;;;;-5.17;89.75;101096.09;5024449;28;20273;-57
2021/12/26 07:25:49;;;;;;;12.43;7.30;;;;;;;-4.99;90.45;101094.75;5024345;28;20612;-56
2021/12/26 07:28:17;;;;;;;11.07;7.33;;;;;;;-4.85;95.98;101094.00;5023730;28;20283;-56
2021/12/26 07:30:44;;;;;;;9.20;6.47;;;;;;;-4.85;94.55;101099.13;5024741;28;20658;-57
2021/12/26 07:33:10;;;;;;;11.50;6.93;;;;;;;-5.05;92.48;101107.16;5023433;28;20659;-54
2021/12/26 07:35:36;;;;;;;13.77;7.70;;;;;;;-4.74;95.77;101107.50;5024431;28;20661;-56
2021/12/26 07:38:03;;;;;;;11.67;6.10;;;;;;;-4.48;93.34;101109.22;5024604;28;20713;-58
2021/12/26 07:40:29;;;;;;;8.40;6.90;;;;;;;-5.10;88.89;101113.63;5024529;28;20257;-53
2021/12/26 07:42:56;;;;;;;11.23;7.57;;;;;;;-4.43;91.12;101105.28;5023649;28;20253;-55
2021/12/26 07:45:23;;;;;;;12.20;7.73;;;;;;;-4.36;85.77;101110.00;5023094;28;20611;-56
2021/12/26 07:47:50;;;;;;;9.40;7.17;;;;;;;-5.01;89.88;101116.81;5024331;28;20707;-55
2021/12/26 07:50:16;;;;;;;12.10;7.30;;;;;;;-5.10;87.11;101129.00;5023586;28;20607;-55
2021/12/26 07:52:44;;;;;;;10.53;7.53;;;;;;;-4.96;92.98;101118.00;5024528;28;20304;-56
2021/12/26 07:55:13;;;;;;;10.57;7.93;;;;;;;-5.19;90.54;101125.81;5023904;28;20244;-55
2021/12/26 07:57:40;;;;;;;12.37;7.33;;;;;;;-4.83;93.58;101128.28;5024154;28;20228;-54
2021/12/26 08:00:08;;;;;;;11.07;7.93;;;;;;;-4.67;91.91;101130.22;5024754;28;20231;-55
2021/12/26 08:02:37;;;;;;;9.80;6.53;;;;;;;-3.69;84.29;101122.75;5024866;28;20268;-55
2021/12/26 08:05:03;;;;;;;11.47;7.83;;;;;;;-3.70;86.06;101121.00;5023259;28;20723;-55
2021/12/26 08:07:30;;;;;;;10.80;7.47;;;;;;;-4.00;83.97;101119.94;5025614;28;20318;-57
2021/12/26 08:09:56;;;;;;;8.57;7.37;;;;;;;-4.40;82.84;101118.28;5028280;28;20273;-55
2021/12/26 08:12:22;;;;;;;8.97;7.10;;;;;;;-4.42;84.34;101119.88;5027047;28;20684;-56
2021/12/26 08:14:49;;;;;;;7.83;6.07;;;;;;;-2.91;87.55;101118.13;5028354;28;20247;-53
2021/12/26 08:17:15;;;;;;;13.00;6.10;;;;;;;-3.41;82.46;101126.25;5027999;28;20739;-56
2021/12/26 08:19:43;;;;;;;9.53;7.43;;;;;;;-4.30;81.92;101124.03;5027887;28;20565;-54
2021/12/26 08:22:09;;;;;;;11.83;7.10;;;;;;;-4.25;83.59;101131.19;5028413;28;20239;-54
2021/12/26 08:24:36;;;;;;;8.43;6.27;;;;;;;-4.18;88.50;101125.69;5028331;28;20262;-56
2021/12/26 08:27:02;;;;;;;12.97;7.53;;;;;;;-3.74;87.41;101129.31;5027277;28;20258;-56
2021/12/26 08:29:28;;;;;;;12.43;6.80;;;;;;;-3.94;85.32;101131.50;5027030;28;20279;-55
2021/12/26 08:31:58;;;;;;;8.90;7.03;;;;;;;-3.71;86.99;101127.81;5027896;28;20321;-56
2021/12/26 08:34:24;;;;;;;9.23;7.27;;;;;;;-4.20;86.86;101136.66;5026834;28;20241;-55
2021/12/26 08:36:59;;;;;;;8.93;6.00;;;;;;;-3.65;84.53;101130.78;5027250;28;20645;-55
2021/12/26 08:39:25;;;;;;;8.60;5.47;;;;;;;-3.26;87.30;101143.41;5026929;28;20320;-57
2021/12/26 08:41:52;;;;;;;11.30;6.47;;;;;;;-3.57;87.40;101138.06;5027764;28;20253;-54
2021/12/26 08:44:19;;;;;;;6.97;5.43;;;;;;;-3.15;85.03;101140.69;5026222;28;20676;-55
2021/12/26 08:46:45;;;;;;;10.57;6.30;;;;;;;-3.61;86.43;101142.13;5027009;28;20238;-55
2021/12/26 08:49:12;;;;;;;8.83;6.50;;;;;;;-3.43;81.26;101147.50;5025908;28;20789;-54
2021/12/26 08:51:38;;;;;;;11.77;7.00;;;;;;;-3.99;85.02;101148.28;5027725;28;20297;-56
2021/12/26 08:54:06;;;;;;;9.60;7.27;;;;;;;-4.55;84.16;101150.63;5027676;28;20502;-56
2021/12/26 08:56:33;;;;;;;8.50;6.17;;;;;;;-3.95;88.31;101134.84;5018785;28;20309;-54
2021/12/26 08:58:59;;;;;;;7.90;5.93;;;;;;;-3.13;87.78;101138.19;5026713;28;20265;-54
2021/12/26 09:01:25;;;;;;;10.17;6.70;;;;;;;-3.25;82.19;101140.03;5027161;28;20642;-56
2021/12/26 09:03:52;;;;;;;7.20;5.73;;;;;;;-3.27;83.24;101144.16;5026501;28;20321;-57
2021/12/26 09:06:18;;;;;;;9.87;5.93;;;;;;;-2.65;81.31;101139.34;5026663;28;20262;-56
2021/12/26 09:08:45;;;;;;;7.57;6.10;;;;;;;-3.10;82.91;101153.78;5027501;28;20256;-56
2021/12/26 09:11:12;;;;;;;8.40;6.40;;;;;;;-3.07;84.57;101142.81;5026528;28;20262;-54
2021/12/26 09:13:39;;;;;;;10.63;6.37;;;;;;;-2.00;81.15;101139.66;5027018;28;20615;-55
2021/12/26 09:16:06;;;;;;;9.27;6.67;;;;;;;-2.17;78.52;101141.28;5027155;28;20265;-54
2021/12/26 09:18:32;;;;;;;10.97;6.97;;;;;;;-2.59;79.83;101144.84;5026002;28;20235;-57
2021/12/26 09:20:58;;;;;;;7.67;6.27;;;;;;;-2.51;79.82;101143.59;5029284;28;20701;-56
2021/12/26 09:23:25;;;;;;;13.00;6.93;;;;;;;-2.84;78.42;101149.31;5026749;28;20780;-55
2021/12/26 09:25:51;;;;;;;10.57;7.10;;;;;;;-2.81;79.23;101152.06;5026345;28;20700;-55
2021/12/26 09:28:19;;;;;;;10.20;7.20;;;;;;;-2.50;77.76;101145.34;5025619;28;20280;-54
2021/12/26 09:30:45;;;;;;;9.87;6.83;;;;;;;-2.45;78.56;101143.94;5027680;28;20258;-56
2021/12/26 09:33:11;;;;;;;8.43;6.87;;;;;;;-2.60;77.43;101149.88;5026049;28;20271;-56
2021/12/26 09:35:38;;;;;;;9.57;7.77;;;;;;;-2.24;75.66;101145.97;5027475;28;20255;-53
2021/12/26 09:38:05;;;;;;;11.47;7.97;;;;;;;-2.26;76.02;101145.00;5027095;28;20226;-56
2021/12/26 09:40:32;;;;;;;12.93;9.47;;;;;;;-2.37;75.14;101144.38;5027494;28;20775;-56
2021/12/26 09:42:58;;;;;;;11.17;8.37;;;;;;;-2.38;74.97;101147.75;5025935;28;20239;-55
2021/12/26 09:45:26;;;;;;;12.17;8.10;;;;;;;-2.52;75.93;101152.09;5027001;28;20262;-56
2021/12/26 09:47:52;;;;;;;14.43;9.00;;;;;;;-2.00;75.98;101149.94;5027192;28;20272;-55
2021/12/26 09:50:20;;;;;;;14.07;10.00;;;;;;;-2.66;75.24;101148.72;5027945;28;20292;-54
2021/12/26 09:52:48;;;;;;;14.33;9.53;;;;;;;-2.41;73.63;101145.91;5028242;28;20241;-57
2021/12/26 09:55:15;;;;;;;14.30;10.63;;;;;;;-2.23;73.16;101140.03;5027693;28;20714;-55
2021/12/26 09:57:42;;;;;;;11.47;8.07;;;;;;;-1.48;73.84;101141.59;5026947;28;20251;-54
2021/12/26 10:00:20;;;;;;;13.20;10.00;;;;;;;-1.97;68.72;101138.91;5027650;28;20257;-57
2021/12/26 10:02:48;;;;;;;12.47;9.17;;;;;;;-2.29;68.06;101132.84;5027140;28;20687;-58
2021/12/26 10:05:15;;;;;;;14.03;9.20;;;;;;;-2.56;71.27;101133.81;5024705;28;20259;-54
2021/12/26 10:07:41;;;;;;;11.97;9.60;;;;;;;-1.91;73.96;101134.13;5026456;28;20794;-56
2021/12/26 10:10:09;;;;;;;12.87;8.67;;;;;;;-2.05;70.62;101130.78;5026694;28;20254;-56
2021/12/26 10:12:40;;;;;;;12.80;8.53;;;;;;;-2.13;67.34;101131.16;5025576;28;20703;-55
2021/12/26 10:15:06;;;;;;;11.07;9.03;;;;;;;-1.93;69.62;101123.75;5025747;28;20649;-56
2021/12/26 10:17:33;;;;;;;12.83;9.17;;;;;;;-2.03;67.15;101123.16;5026640;28;20235;-57
2021/12/26 10:20:06;;;;;;;13.60;8.60;;;;;;;-1.75;66.69;101117.84;5026132;28;20242;-57
2021/12/26 10:22:33;;;;;;;12.00;8.07;;;;;;;-1.73;65.01;101114.53;5025210;28;20257;-57
2021/12/26 10:25:00;;;;;;;10.63;8.37;;;;;;;-1.12;65.71;101111.78;5028149;28;20246;-56
2021/12/26 10:27:29;;;;;;;9.03;7.60;;;;;;;-1.34;64.46;101119.16;5025645;28;20727;-55
2021/12/26 10:29:57;;;;;;;14.47;8.80;;;;;;;-1.32;62.15;101112.41;5026168;28;20239;-54
2021/12/26 10:32:25;;;;;;;12.10;8.57;;;;;;;-1.25;64.20;101119.66;5025171;28;20290;-56
2021/12/26 10:34:53;;;;;;;10.20;8.30;;;;;;;-1.28;63.73;101112.66;5025059;28;20281;-54
2021/12/26 10:37:24;;;;;;;16.07;9.10;;;;;;;-1.22;59.07;101104.38;5024926;28;20743;-54
2021/12/26 10:39:52;;;;;;;11.10;8.37;;;;;;;-1.43;57.92;101109.28;5028286;28;20253;-55
2021/12/26 10:42:20;;;;;;;8.70;7.60;;;;;;;-1.10;61.23;101094.69;5028902;28;20265;-56
2021/12/26 10:44:49;;;;;;;10.87;8.33;;;;;;;-1.02;60.91;101102.81;5029755;28;20242;-57
2021/12/26 10:47:19;;;;;;;12.47;7.47;;;;;;;-0.98;60.13;101097.91;5030091;28;20293;-55
2021/12/26 10:49:49;;;;;;;9.27;7.23;;;;;;;-1.35;54.98;101100.25;5027445;28;20793;-54
2021/12/26 10:52:21;;;;;;;7.60;6.53;;;;;;;-1.20;57.29;101095.88;5024774;28;20747;-54
2021/12/26 10:54:54;;;;;;;9.50;7.40;;;;;;;-1.46;55.79;101097.13;5025690;28;20658;-55
2021/12/26 10:57:24;;;;;;;10.30;7.33;;;;;;;-1.41;59.06;101099.03;5024503;28;20266;-54
2021/12/26 11:00:04;;;;;;;8.07;6.67;;;;;;;-1.98;53.50;101095.97;5026021;28;20777;-54
2021/12/26 11:02:32;;;;;;;10.00;7.27;;;;;;;-2.03;53.89;101088.03;5025530;28;20230;-54
2021/12/26 11:05:03;;;;;;;9.47;7.37;;;;;;;-1.88;57.87;101089.66;5024359;28;20237;-55
2021/12/26 11:07:31;;;;;;;8.93;6.80;;;;;;;-1.23;58.65;101090.59;5025239;28;20305;-53
2021/12/26 11:10:06;;;;;;;8.13;6.37;;;;;;;-1.25;53.94;101084.47;5025722;28;20269;-57
2021/12/26 11:12:38;;;;;;;10.50;7.47;;;;;;;-1.15;55.08;101082.38;5020182;28;20263;-55
2021/12/26 11:15:05;;;;;;;8.43;6.77;;;;;;;-1.25;50.86;101078.44;5025552;28;20796;-54
2021/12/26 11:17:34;;;;;;;12.00;7.80;;;;;;;-1.16;54.52;101075.44;5026734;28;20282;-54
2021/12/26 11:20:00;;;;;;;9.47;7.23;;;;;;;-1.45;52.36;101080.84;5026022;28;20313;-54
2021/12/26 11:22:28;;;;;;;10.20;7.00;;;;;;;-1.55;53.24;101075.13;5027436;28;20269;-55